Time;durP1;ratioP1;P1;durP2;ratioP2;P2;SDS_P1;SDS_P2;PMS_P1;PMS_P2;Temp;Humidity;BMP_temperature;BMP_pressure;BME280_temperature;BME280_humidity;BME280_pressure;Samples;Min_cycle;Max_cycle;Signal;HPM_P1;HPM_P2
2023/12/23 00:01:12;;;;;;;;;;;;;;;18.44;38.78;99026.66;5062939;28;1155;-54
2023/12/23 00:03:38;;;;;;;;;;;;;;;16.83;41.58;99024.66;5067912;28;1130;-54
2023/12/23 00:06:03;;;;;;;;;;;;;;;16.18;42.82;99032.78;5062880;28;1015;-53
2023/12/23 00:08:29;;;;;;;;;;;;;;;17.25;41.64;99036.34;5078892;28;1169;-53
2023/12/23 00:10:54;;;;;;;;;;;;;;;16.48;42.51;99041.31;5063430;28;1234;-53
2023/12/23 00:13:20;;;;;;;;;;;;;;;17.39;41.20;99042.91;5069245;28;1905;-54
2023/12/23 00:15:45;;;;;;;;;;;;;;;17.73;39.88;99051.84;5061608;28;1167;-54
2023/12/23 00:18:11;;;;;;;;;;;;;;;16.46;42.38;99055.75;5069568;28;1138;-53
2023/12/23 00:20:37;;;;;;;;;;;;;;;18.25;39.35;99049.13;5074524;28;1095;-52
2023/12/23 00:23:03;;;;;;;;;;;;;;;17.13;41.14;99054.41;5066888;28;1144;-51
2023/12/23 00:25:29;;;;;;;;;;;;;;;16.43;42.37;99074.63;5076031;28;1078;-53
2023/12/23 00:27:54;;;;;;;;;;;;;;;17.23;41.42;99063.06;5067425;28;1051;-54
2023/12/23 00:30:19;;;;;;;;;;;;;;;16.84;41.76;99072.28;5076027;28;1032;-53
2023/12/23 00:32:46;;;;;;;;;;;;;;;16.23;42.77;99067.63;5078544;28;1255;-55
2023/12/23 00:35:12;;;;;;;;;;;;;;;16.18;43.18;99074.41;5063409;28;1906;-52
2023/12/23 00:37:37;;;;;;;;;;;;;;;17.57;40.43;99069.38;5078580;28;1107;-52
2023/12/23 00:40:03;;;;;;;;;;;;;;;16.35;43.14;99072.75;5064941;28;1195;-54
2023/12/23 00:42:28;;;;;;;;;;;;;;;18.46;38.98;99072.59;5060291;28;1187;-54
2023/12/23 00:44:54;;;;;;;;;;;;;;;17.41;40.57;99070.16;5043770;28;1085;-53
2023/12/23 00:47:21;;;;;;;;;;;;;;;16.49;42.47;99072.19;5046964;28;1231;-52
2023/12/23 00:49:47;;;;;;;;;;;;;;;16.15;42.67;99064.91;5056872;28;1215;-53
2023/12/23 00:52:12;;;;;;;;;;;;;;;17.33;40.76;99041.69;5060367;28;1091;-54
2023/12/23 00:54:38;;;;;;;;;;;;;;;16.44;42.36;99049.75;5060330;28;1913;-51
2023/12/23 00:57:04;;;;;;;;;;;;;;;18.03;39.83;99052.25;5067904;28;1074;-55
2023/12/23 00:59:29;;;;;;;;;;;;;;;17.18;41.39;99056.59;5062126;28;1091;-55
2023/12/23 01:01:56;;;;;;;;;;;;;;;16.32;42.78;99035.88;5060148;28;1177;-54
2023/12/23 01:04:22;;;;;;;;;;;;;;;17.50;40.81;99049.72;5043007;28;1140;-53
2023/12/23 01:06:47;;;;;;;;;;;;;;;16.33;42.84;99045.53;5039996;28;1061;-50
2023/12/23 01:09:13;;;;;;;;;;;;;;;16.07;42.77;99060.38;5061364;28;1111;-53
2023/12/23 01:11:39;;;;;;;;;;;;;;;16.76;42.60;99054.50;5071756;28;1222;-54
2023/12/23 01:14:05;;;;;;;;;;;;;;;16.69;42.16;99064.06;5074143;28;1980;-53
2023/12/23 01:16:30;;;;;;;;;;;;;;;17.23;41.64;99059.59;5059557;28;1113;-50
2023/12/23 01:18:56;;;;;;;;;;;;;;;18.61;38.59;99048.78;5077297;28;1095;-52
2023/12/23 01:21:21;;;;;;;;;;;;;;;16.83;42.08;99046.69;5077680;28;1107;-51
2023/12/23 01:23:47;;;;;;;;;;;;;;;16.40;42.49;99050.06;5075558;28;1090;-50
2023/12/23 01:26:13;;;;;;;;;;;;;;;17.62;40.69;99042.31;5059288;28;1176;-52
2023/12/23 01:28:38;;;;;;;;;;;;;;;16.64;42.66;99055.72;5077433;28;1074;-52
2023/12/23 01:31:07;;;;;;;;;;;;;;;18.56;38.98;99054.63;5068091;28;1042;-52
2023/12/23 01:33:33;;;;;;;;;;;;;;;15.87;43.79;99057.81;5070182;28;1981;-53
2023/12/23 01:35:58;;;;;;;;;;;;;;;17.23;41.91;99051.63;5054678;28;1166;-54
2023/12/23 01:38:24;;;;;;;;;;;;;;;18.92;38.19;99060.56;5076998;28;1149;-53
2023/12/23 01:40:49;;;;;;;;;;;;;;;14.88;46.35;99070.66;5077411;28;1071;-53
2023/12/23 01:43:15;;;;;;;;;;;;;;;17.73;40.77;99081.09;5073636;28;1067;-55
2023/12/23 01:45:41;;;;;;;;;;;;;;;18.18;38.94;99072.91;5066662;28;1106;-53
2023/12/23 01:48:07;;;;;;;;;;;;;;;16.80;42.03;99064.78;5074168;28;1199;-53
2023/12/23 01:50:32;;;;;;;;;;;;;;;16.30;43.10;99053.78;5059317;28;1214;-54
2023/12/23 01:52:58;;;;;;;;;;;;;;;16.05;43.07;99072.13;5045770;28;1167;-55
2023/12/23 01:55:24;;;;;;;;;;;;;;;16.07;43.52;99057.72;5032739;28;1917;-54
2023/12/23 01:57:49;;;;;;;;;;;;;;;16.95;41.74;99062.41;5042322;28;1242;-53
2023/12/23 02:00:15;;;;;;;;;;;;;;;16.18;43.61;99056.66;5044754;28;1167;-52
2023/12/23 02:02:40;;;;;;;;;;;;;;;18.27;39.56;99050.63;5074024;28;1059;-53
2023/12/23 02:05:06;;;;;;;;;;;;;;;16.87;41.99;99041.91;5056784;28;1102;-52
2023/12/23 02:07:32;;;;;;;;;;;;;;;16.27;42.87;99028.38;5056688;28;1092;-52
2023/12/23 02:09:57;;;;;;;;;;;;;;;15.98;43.10;99029.41;5066617;28;1103;-51
2023/12/23 02:12:28;;;;;;;;;;;;;;;17.82;40.49;99026.06;5076303;28;829;-49
2023/12/23 02:15:00;;;;;;;;;;;;;;;16.36;43.00;99014.22;5058452;28;1949;-52
2023/12/23 02:17:26;;;;;;;;;;;;;;;17.59;41.11;99016.03;5058327;28;1048;-51
2023/12/23 02:19:52;;;;;;;;;;;;;;;17.23;41.35;99009.94;5076431;28;1153;-50
2023/12/23 02:22:17;;;;;;;;;;;;;;;16.40;42.72;99012.91;5076226;28;1080;-54
2023/12/23 02:24:43;;;;;;;;;;;;;;;16.64;42.92;99013.22;5055916;28;1123;-54
2023/12/23 02:27:10;;;;;;;;;;;;;;;16.93;41.97;99000.63;5063023;28;1212;-55
2023/12/23 02:29:36;;;;;;;;;;;;;;;16.23;43.04;98996.00;5076339;28;1130;-52
2023/12/23 02:32:02;;;;;;;;;;;;;;;16.31;43.74;98994.41;5062684;28;1179;-53
2023/12/23 02:34:28;;;;;;;;;;;;;;;17.19;41.53;98992.66;5058221;28;1989;-54
2023/12/23 02:36:53;;;;;;;;;;;;;;;16.15;43.35;98995.94;5049015;28;1185;-54
2023/12/23 02:39:19;;;;;;;;;;;;;;;18.15;39.76;98996.88;5056581;28;1114;-53
2023/12/23 02:41:44;;;;;;;;;;;;;;;16.96;41.86;98995.00;5056657;28;1230;-52
2023/12/23 02:44:10;;;;;;;;;;;;;;;16.26;43.06;98982.47;5066146;28;1040;-51
2023/12/23 02:46:37;;;;;;;;;;;;;;;15.99;43.15;98978.06;5072595;28;1075;-55
2023/12/23 02:49:02;;;;;;;;;;;;;;;17.60;40.71;98972.53;5056681;28;1039;-53
2023/12/23 02:51:29;;;;;;;;;;;;;;;16.25;43.36;98962.19;5073525;28;1226;-52
2023/12/23 02:53:55;;;;;;;;;;;;;;;15.93;43.20;98966.22;5075846;28;1906;-51
2023/12/23 02:56:20;;;;;;;;;;;;;;;17.71;40.56;98971.38;5062391;28;1059;-54
2023/12/23 02:58:46;;;;;;;;;;;;;;;16.39;42.96;98978.56;5064994;28;1067;-54
2023/12/23 03:01:11;;;;;;;;;;;;;;;16.89;42.55;98992.97;5072615;28;1156;-53
2023/12/23 03:03:37;;;;;;;;;;;;;;;16.97;41.84;98983.38;5065659;28;1206;-54
2023/12/23 03:06:02;;;;;;;;;;;;;;;16.18;42.84;98986.84;5041423;28;1187;-52
2023/12/23 03:08:29;;;;;;;;;;;;;;;16.95;42.50;98982.72;5076109;28;928;-55
2023/12/23 03:10:54;;;;;;;;;;;;;;;16.85;42.40;98982.84;5075647;28;1150;-54
2023/12/23 03:13:20;;;;;;;;;;;;;;;16.18;43.14;98987.69;5074729;28;1984;-53
2023/12/23 03:15:45;;;;;;;;;;;;;;;17.90;40.28;98990.69;5041652;28;1076;-55
2023/12/23 03:18:11;;;;;;;;;;;;;;;16.56;42.37;98978.66;5047795;28;1222;-53
2023/12/23 03:20:37;;;;;;;;;;;;;;;16.20;43.65;98988.34;5072503;28;1146;-54
2023/12/23 03:23:02;;;;;;;;;;;;;;;17.44;40.78;98995.41;5065996;28;1114;-53
2023/12/23 03:25:29;;;;;;;;;;;;;;;16.26;43.05;98987.75;5050148;28;1100;-51
2023/12/23 03:27:55;;;;;;;;;;;;;;;17.66;40.93;98993.13;5057646;28;1095;-54
2023/12/23 03:30:20;;;;;;;;;;;;;;;16.86;42.05;98976.53;5038530;28;1014;-50
2023/12/23 03:32:46;;;;;;;;;;;;;;;16.17;43.13;98972.75;5065735;28;1161;-50
2023/12/23 03:35:12;;;;;;;;;;;;;;;17.80;40.62;98977.53;5040836;28;1906;-52
2023/12/23 03:37:38;;;;;;;;;;;;;;;16.58;42.68;98968.72;5066430;28;915;-52
2023/12/23 03:40:04;;;;;;;;;;;;;;;16.33;43.63;98960.59;5061991;28;1157;-53
2023/12/23 03:42:30;;;;;;;;;;;;;;;17.37;40.85;98951.84;5066333;28;1239;-52
2023/12/23 03:44:55;;;;;;;;;;;;;;;16.19;43.06;98965.47;5071896;28;1219;-53
2023/12/23 03:47:21;;;;;;;;;;;;;;;18.13;39.75;98964.28;5075299;28;1170;-50
2023/12/23 03:49:46;;;;;;;;;;;;;;;16.99;41.63;98963.66;5071860;28;1102;-52
2023/12/23 03:52:12;;;;;;;;;;;;;;;16.34;42.63;98964.91;5065522;28;1108;-50
2023/12/23 03:54:37;;;;;;;;;;;;;;;16.27;42.96;98972.66;5072183;28;1902;-53
2023/12/23 03:57:03;;;;;;;;;;;;;;;17.66;40.26;98984.31;5047366;28;1174;-51
2023/12/23 03:59:28;;;;;;;;;;;;;;;16.46;42.53;98982.25;5062110;28;1078;-52
2023/12/23 04:01:54;;;;;;;;;;;;;;;16.32;43.37;98993.41;5054454;28;981;-53
2023/12/23 04:04:20;;;;;;;;;;;;;;;17.52;40.58;98999.91;5072360;28;1261;-54
2023/12/23 04:06:46;;;;;;;;;;;;;;;16.33;42.88;99006.53;5055702;28;1159;-54
2023/12/23 04:09:11;;;;;;;;;;;;;;;15.96;43.16;99005.69;5054631;28;1094;-53
2023/12/23 04:11:37;;;;;;;;;;;;;;;17.67;40.93;99009.91;5059065;28;1154;-52
2023/12/23 04:14:02;;;;;;;;;;;;;;;16.39;43.01;98991.81;5053739;28;1902;-52
2023/12/23 04:16:28;;;;;;;;;;;;;;;16.67;42.89;98993.50;5050650;28;1297;-51
2023/12/23 04:18:53;;;;;;;;;;;;;;;17.39;40.83;98992.38;5078660;28;1078;-51
2023/12/23 04:21:19;;;;;;;;;;;;;;;16.39;42.91;98983.84;5060723;28;1365;-51
2023/12/23 04:23:45;;;;;;;;;;;;;;;16.08;42.85;98993.06;5060200;28;1094;-53
2023/12/23 04:26:11;;;;;;;;;;;;;;;17.06;41.59;98998.38;5065153;28;1143;-49
2023/12/23 04:28:36;;;;;;;;;;;;;;;16.14;43.07;98994.28;5060655;28;1095;-52
2023/12/23 04:31:02;;;;;;;;;;;;;;;17.04;42.24;99010.13;5077605;28;1114;-49
2023/12/23 04:33:28;;;;;;;;;;;;;;;16.74;42.17;99021.94;5047327;28;1971;-49
2023/12/23 04:35:54;;;;;;;;;;;;;;;16.15;43.90;99019.81;5060281;28;1217;-46
2023/12/23 04:38:20;;;;;;;;;;;;;;;18.10;39.45;99013.31;5057882;28;1179;-52
2023/12/23 04:40:45;;;;;;;;;;;;;;;16.57;42.47;99014.81;5051455;28;1243;-52
2023/12/23 04:43:11;;;;;;;;;;;;;;;16.03;43.34;99000.66;5053268;28;1146;-51
2023/12/23 04:45:37;;;;;;;;;;;;;;;16.69;42.70;98995.03;5060243;28;1322;-53
2023/12/23 04:48:02;;;;;;;;;;;;;;;16.82;41.88;98989.28;5077441;28;1159;-51
2023/12/23 04:50:28;;;;;;;;;;;;;;;17.21;41.45;98982.72;5048878;28;2495;-54
2023/12/23 04:52:54;;;;;;;;;;;;;;;18.69;38.25;98984.88;5058594;28;1071;-56
2023/12/23 04:55:22;;;;;;;;;;;;;;;16.86;41.72;99005.75;5050611;28;1910;-54
2023/12/23 04:57:48;;;;;;;;;;;;;;;16.30;42.65;99008.69;5057403;28;1033;-55
2023/12/23 05:00:14;;;;;;;;;;;;;;;17.87;40.24;99013.13;5075504;28;1482;-55
2023/12/23 05:02:41;;;;;;;;;;;;;;;16.72;42.14;98992.03;5062392;28;999;-52
2023/12/23 05:05:06;;;;;;;;;;;;;;;16.14;42.93;98988.97;5067215;28;1098;-51
2023/12/23 05:07:32;;;;;;;;;;;;;;;17.74;40.48;98979.84;5077879;28;1087;-49
2023/12/23 05:09:58;;;;;;;;;;;;;;;16.76;41.72;98955.41;5077617;28;1194;-53
2023/12/23 05:12:23;;;;;;;;;;;;;;;16.21;42.88;98952.06;5064205;28;1242;-52
2023/12/23 05:14:50;;;;;;;;;;;;;;;17.83;39.79;98943.44;5053502;28;1972;-52
2023/12/23 05:17:15;;;;;;;;;;;;;;;16.46;42.57;98938.97;5076825;28;1123;-51
2023/12/23 05:19:42;;;;;;;;;;;;;;;18.26;39.34;98936.34;5045414;28;1850;-54
2023/12/23 05:22:08;;;;;;;;;;;;;;;17.68;39.88;98937.13;5058966;28;1048;-55
2023/12/23 05:24:35;;;;;;;;;;;;;;;15.05;46.51;98928.69;5058659;28;1221;-51
2023/12/23 05:27:01;;;;;;;;;;;;;;;17.27;41.03;98932.56;5053732;28;1346;-50
2023/12/23 05:29:27;;;;;;;;;;;;;;;16.94;41.40;98927.91;5063902;28;1234;-53
2023/12/23 05:31:52;;;;;;;;;;;;;;;16.64;42.19;98920.31;5058523;28;1400;-51
2023/12/23 05:34:18;;;;;;;;;;;;;;;16.46;42.44;98915.06;5066881;28;1964;-54
2023/12/23 05:36:44;;;;;;;;;;;;;;;16.20;42.78;98905.28;5073402;28;1155;-53
2023/12/23 05:39:10;;;;;;;;;;;;;;;15.99;43.38;98907.28;5067415;28;989;-53
2023/12/23 05:41:35;;;;;;;;;;;;;;;15.88;43.63;98913.63;5059081;28;1042;-50
2023/12/23 05:44:01;;;;;;;;;;;;;;;15.72;43.91;98903.72;5076772;28;1104;-54
2023/12/23 05:46:26;;;;;;;;;;;;;;;15.66;43.86;98907.00;5076172;28;1144;-53
2023/12/23 05:48:52;;;;;;;;;;;;;;;15.50;44.35;98911.13;5071172;28;2502;-54
2023/12/23 05:51:17;;;;;;;;;;;;;;;15.76;43.98;98926.31;5069972;28;1046;-51
2023/12/23 05:53:43;;;;;;;;;;;;;;;17.10;40.93;98937.81;5056617;28;1957;-54
2023/12/23 05:56:08;;;;;;;;;;;;;;;16.17;42.62;98954.19;5072505;28;1147;-53
2023/12/23 05:58:34;;;;;;;;;;;;;;;15.81;43.48;98940.91;5067604;28;1218;-52
2023/12/23 06:01:00;;;;;;;;;;;;;;;15.59;44.18;98958.94;5070276;28;1222;-52
2023/12/23 06:03:26;;;;;;;;;;;;;;;15.47;44.58;98942.41;5064101;28;964;-55
2023/12/23 06:05:51;;;;;;;;;;;;;;;16.98;41.15;98931.94;5059559;28;1111;-52
2023/12/23 06:08:17;;;;;;;;;;;;;;;16.34;42.26;98915.34;5076507;28;1060;-51
2023/12/23 06:10:42;;;;;;;;;;;;;;;15.83;43.03;98917.75;5076204;28;1102;-51
2023/12/23 06:13:08;;;;;;;;;;;;;;;15.59;43.81;98897.97;5077010;28;1321;-52
2023/12/23 06:15:33;;;;;;;;;;;;;;;15.66;43.68;98891.09;5061135;28;1906;-50
2023/12/23 06:17:59;;;;;;;;;;;;;;;17.11;40.66;98881.03;5076530;28;1115;-50
2023/12/23 06:20:24;;;;;;;;;;;;;;;16.45;41.73;98884.22;5076098;28;1086;-49
2023/12/23 06:22:50;;;;;;;;;;;;;;;15.91;42.96;98880.69;5067232;28;1250;-49
2023/12/23 06:25:15;;;;;;;;;;;;;;;15.59;43.77;98888.22;5071861;28;1203;-51
2023/12/23 06:27:41;;;;;;;;;;;;;;;16.97;40.94;98893.91;5076138;28;865;-51
2023/12/23 06:30:07;;;;;;;;;;;;;;;16.64;41.49;98899.06;5073772;28;1091;-53
2023/12/23 06:32:32;;;;;;;;;;;;;;;15.89;43.19;98894.09;5064672;28;1175;-49
2023/12/23 06:34:58;;;;;;;;;;;;;;;15.70;43.84;98886.31;5073746;28;1972;-51
2023/12/23 06:37:23;;;;;;;;;;;;;;;15.93;43.26;98883.19;5064282;28;1087;-50
2023/12/23 06:39:49;;;;;;;;;;;;;;;17.32;40.15;98901.00;5075708;28;920;-50
2023/12/23 06:42:14;;;;;;;;;;;;;;;16.38;41.69;98892.78;5076262;28;1066;-47
2023/12/23 06:44:40;;;;;;;;;;;;;;;15.89;43.15;98875.53;5075772;28;1078;-51
2023/12/23 06:47:07;;;;;;;;;;;;;;;15.63;43.65;98881.59;5068168;28;1134;-50
2023/12/23 06:49:33;;;;;;;;;;;;;;;15.44;43.88;98901.16;5057206;28;1118;-53
2023/12/23 06:51:58;;;;;;;;;;;;;;;16.93;41.11;98902.34;5064945;28;918;-50
2023/12/23 06:54:24;;;;;;;;;;;;;;;16.93;40.74;98892.56;5075821;28;1988;-50
2023/12/23 06:56:49;;;;;;;;;;;;;;;16.14;42.41;98909.38;5076059;28;1339;-54
2023/12/23 06:59:15;;;;;;;;;;;;;;;15.82;43.35;98916.06;5074619;28;1079;-50
2023/12/23 07:01:40;;;;;;;;;;;;;;;16.49;42.10;98918.25;5064076;28;1083;-48
2023/12/23 07:04:09;;;;;;;;;;;;;;;16.86;41.03;98921.59;5062535;28;1008;-55
2023/12/23 07:06:35;;;;;;;;;;;;;;;16.10;42.48;98900.91;5066862;28;1087;-52
2023/12/23 07:09:01;;;;;;;;;;;;;;;15.85;43.09;98899.88;5071177;28;1064;-52
2023/12/23 07:11:26;;;;;;;;;;;;;;;16.56;41.82;98907.84;5075560;28;1059;-52
2023/12/23 07:13:52;;;;;;;;;;;;;;;17.32;40.13;98888.53;5075339;28;1913;-54
2023/12/23 07:16:17;;;;;;;;;;;;;;;16.36;42.05;98878.88;5070218;28;949;-52
2023/12/23 07:18:43;;;;;;;;;;;;;;;15.97;42.81;98881.88;5076266;28;1078;-50
2023/12/23 07:21:08;;;;;;;;;;;;;;;15.65;43.57;98889.41;5044971;28;1227;-48
2023/12/23 07:23:34;;;;;;;;;;;;;;;16.36;42.38;98891.28;5075025;28;1418;-53
2023/12/23 07:26:00;;;;;;;;;;;;;;;17.11;40.42;98889.00;5074371;28;1008;-51
2023/12/23 07:28:25;;;;;;;;;;;;;;;16.21;42.27;98881.25;5067388;28;984;-48
2023/12/23 07:30:51;;;;;;;;;;;;;;;15.82;42.97;98869.16;5068818;28;1051;-49
2023/12/23 07:33:16;;;;;;;;;;;;;;;15.60;43.77;98859.91;5060580;28;1090;-52
2023/12/23 07:35:42;;;;;;;;;;;;;;;16.26;42.68;98856.91;5068100;28;1905;-51
2023/12/23 07:38:07;;;;;;;;;;;;;;;17.35;39.84;98851.00;5074996;28;1100;-48
2023/12/23 07:40:35;;;;;;;;;;;;;;;16.46;41.51;98862.00;5070827;28;1064;-53
2023/12/23 07:43:00;;;;;;;;;;;;;;;15.93;42.83;98865.47;5069653;28;2740;-51
2023/12/23 07:45:29;;;;;;;;;;;;;;;15.66;43.14;98860.09;5060601;28;1270;-52
2023/12/23 07:47:55;;;;;;;;;;;;;;;16.42;41.90;98853.50;5079202;28;1031;-50
2023/12/23 07:50:22;;;;;;;;;;;;;;;17.20;40.04;98847.34;5065018;28;1042;-50
2023/12/23 07:52:48;;;;;;;;;;;;;;;16.31;41.79;98838.69;5068768;28;1115;-49
2023/12/23 07:55:14;;;;;;;;;;;;;;;15.87;42.75;98845.69;5062355;28;1910;-50
2023/12/23 07:57:40;;;;;;;;;;;;;;;16.16;42.43;98838.44;5079053;28;1174;-51
2023/12/23 08:00:06;;;;;;;;;;;;;;;17.27;39.75;98851.00;5061431;28;1154;-50
2023/12/23 08:02:31;;;;;;;;;;;;;;;16.31;41.47;98865.25;5067042;28;1051;-53
2023/12/23 08:04:57;;;;;;;;;;;;;;;15.88;42.74;98860.59;5071823;28;1017;-50
2023/12/23 08:07:23;;;;;;;;;;;;;;;15.81;43.01;98861.38;5069529;28;1194;-52
2023/12/23 08:09:48;;;;;;;;;;;;;;;17.25;40.00;98858.28;5074332;28;1114;-52
2023/12/23 08:12:14;;;;;;;;;;;;;;;16.39;41.40;98861.78;5060624;28;2178;-50
2023/12/23 08:14:39;;;;;;;;;;;;;;;15.93;42.31;98865.47;5060748;28;1906;-51
2023/12/23 08:17:05;;;;;;;;;;;;;;;15.67;42.96;98882.97;5067580;28;1071;-49
2023/12/23 08:19:30;;;;;;;;;;;;;;;17.07;40.26;98900.91;5075604;28;1052;-52
2023/12/23 08:21:56;;;;;;;;;;;;;;;16.58;40.91;98900.53;5078321;28;1082;-54
2023/12/23 08:24:22;;;;;;;;;;;;;;;15.94;42.31;98930.75;5061215;28;989;-48
2023/12/23 08:26:47;;;;;;;;;;;;;;;15.69;43.22;98935.84;5057876;28;1135;-50
2023/12/23 08:29:13;;;;;;;;;;;;;;;15.48;43.32;98949.38;5058332;28;1015;-52
2023/12/23 08:31:43;;;;;;;;;;;;;;;16.90;40.37;98951.31;5060543;28;1089;-51
2023/12/23 08:34:08;;;;;;;;;;;;;;;16.88;40.17;98959.44;5068746;28;1902;-53
2023/12/23 08:36:34;;;;;;;;;;;;;;;16.18;41.92;98958.50;5072448;28;1119;-52
2023/12/23 08:38:59;;;;;;;;;;;;;;;15.82;42.52;98939.91;5062492;28;1140;-51
2023/12/23 08:41:24;;;;;;;;;;;;;;;15.55;43.37;98931.88;5066297;28;1983;-52
2023/12/23 08:43:50;;;;;;;;;;;;;;;16.94;40.60;98930.56;5066134;28;1071;-50
2023/12/23 08:46:15;;;;;;;;;;;;;;;16.65;40.75;98921.97;5077268;28;1064;-48
2023/12/23 08:48:41;;;;;;;;;;;;;;;16.03;41.89;98898.03;5077395;28;1034;-49
2023/12/23 08:51:07;;;;;;;;;;;;;;;15.70;42.78;98883.66;5063743;28;1111;-46
2023/12/23 08:53:33;;;;;;;;;;;;;;;16.50;41.23;98863.31;5077994;28;1914;-49
2023/12/23 08:55:58;;;;;;;;;;;;;;;16.93;40.18;98860.69;5076469;28;1083;-48
2023/12/23 08:58:25;;;;;;;;;;;;;;;16.16;41.61;98863.13;5069836;28;1082;-53
2023/12/23 09:00:51;;;;;;;;;;;;;;;15.74;42.75;98871.75;5057344;28;1019;-51
2023/12/23 09:03:16;;;;;;;;;;;;;;;15.56;42.93;98877.91;5061425;28;1044;-52
2023/12/23 09:05:42;;;;;;;;;;;;;;;16.44;41.26;98880.72;5077990;28;1099;-48
2023/12/23 09:08:08;;;;;;;;;;;;;;;17.26;39.45;98881.22;5059406;28;1028;-51
2023/12/23 09:10:34;;;;;;;;;;;;;;;16.27;41.26;98874.47;5064236;28;1112;-49
2023/12/23 09:12:59;;;;;;;;;;;;;;;15.91;41.94;98859.47;5057448;28;2593;-48
2023/12/23 09:15:25;;;;;;;;;;;;;;;15.64;42.96;98862.09;5067773;28;1977;-52
2023/12/23 09:17:50;;;;;;;;;;;;;;;17.02;39.92;98867.69;5069584;28;1201;-52
2023/12/23 09:20:16;;;;;;;;;;;;;;;16.69;40.37;98880.00;5071024;28;1141;-50
2023/12/23 09:22:41;;;;;;;;;;;;;;;15.98;41.90;98892.34;5077927;28;1078;-51
2023/12/23 09:25:07;;;;;;;;;;;;;;;15.67;42.51;98887.44;5077076;28;1129;-49
2023/12/23 09:27:33;;;;;;;;;;;;;;;15.50;43.02;98889.09;5072010;28;1137;-49
2023/12/23 09:29:59;;;;;;;;;;;;;;;17.05;40.09;98871.84;5056921;28;1001;-50
2023/12/23 09:32:25;;;;;;;;;;;;;;;16.67;40.44;98884.63;5057041;28;1334;-49
2023/12/23 09:34:53;;;;;;;;;;;;;;;15.96;41.98;98890.81;5071006;28;1905;-52
2023/12/23 09:37:19;;;;;;;;;;;;;;;15.65;42.69;98890.25;5076802;28;1103;-52
2023/12/23 09:39:44;;;;;;;;;;;;;;;15.43;43.40;98895.00;5071361;28;1105;-51
2023/12/23 09:42:10;;;;;;;;;;;;;;;16.92;40.45;98885.59;5063668;28;1829;-51
2023/12/23 09:44:36;;;;;;;;;;;;;;;16.47;40.75;98893.69;5070487;28;1075;-55
2023/12/23 09:47:01;;;;;;;;;;;;;;;15.97;41.81;98890.66;5058778;28;1040;-56
2023/12/23 09:49:27;;;;;;;;;;;;;;;15.74;42.91;98887.66;5076730;28;1118;-57
2023/12/23 09:51:54;;;;;;;;;;;;;;;17.00;40.21;98888.25;5070244;28;1293;-56
2023/12/23 09:54:19;;;;;;;;;;;;;;;16.71;40.58;98886.00;5056551;28;1981;-56
2023/12/23 09:56:46;;;;;;;;;;;;;;;16.00;41.78;98885.09;5076327;28;1090;-52
2023/12/23 09:59:12;;;;;;;;;;;;;;;15.65;42.80;98870.84;5076388;28;1317;-48
2023/12/23 10:01:37;;;;;;;;;;;;;;;15.57;42.92;98855.72;5076911;28;1317;-53
2023/12/23 10:04:03;;;;;;;;;;;;;;;17.06;40.08;98864.72;5076197;28;1376;-50
2023/12/23 10:06:28;;;;;;;;;;;;;;;16.84;40.08;98859.00;5070871;28;1210;-51
2023/12/23 10:08:54;;;;;;;;;;;;;;;16.31;41.55;98859.94;5075314;28;1146;-57
2023/12/23 10:11:19;;;;;;;;;;;;;;;15.76;42.51;98840.63;5072427;28;2347;-51
2023/12/23 10:13:45;;;;;;;;;;;;;;;15.58;42.80;98844.13;5075942;28;1910;-46
2023/12/23 10:16:11;;;;;;;;;;;;;;;16.70;40.71;98857.78;5068511;28;1103;-47
2023/12/23 10:18:39;;;;;;;;;;;;;;;17.12;39.75;98835.69;5072533;28;1095;-45
2023/12/23 10:21:05;;;;;;;;;;;;;;;16.22;41.37;98819.25;5075620;28;1297;-47
2023/12/23 10:23:30;;;;;;;;;;;;;;;15.84;42.39;98830.09;5075481;28;1289;-50
2023/12/23 10:25:57;;;;;;;;;;;;;;;15.91;42.32;98848.88;5057505;28;1258;-46
2023/12/23 10:28:22;;;;;;;;;;;;;;;17.29;39.42;98850.84;5064466;28;1139;-47
2023/12/23 10:30:48;;;;;;;;;;;;;;;16.45;41.06;98853.19;5057899;28;1055;-43
2023/12/23 10:33:14;;;;;;;;;;;;;;;15.96;41.77;98859.84;5053423;28;1115;-47
2023/12/23 10:35:45;;;;;;;;;;;;;;;15.65;43.02;98857.59;5067758;28;1910;-47
2023/12/23 10:38:13;;;;;;;;;;;;;;;16.89;40.37;98848.72;5061662;28;1134;-46
2023/12/23 10:40:38;;;;;;;;;;;;;;;16.77;40.18;98851.69;5039186;28;1850;-47
2023/12/23 10:43:04;;;;;;;;;;;;;;;16.01;41.85;98836.38;5038335;28;1091;-48
2023/12/23 10:45:30;;;;;;;;;;;;;;;15.76;42.33;98830.03;5055769;28;1004;-45
2023/12/23 10:47:56;;;;;;;;;;;;;;;16.78;40.51;98849.88;5069116;28;1039;-50
2023/12/23 10:50:21;;;;;;;;;;;;;;;17.00;39.78;98843.09;5064444;28;980;-49
2023/12/23 10:52:47;;;;;;;;;;;;;;;16.19;41.21;98862.00;5052767;28;1164;-48
2023/12/23 10:55:12;;;;;;;;;;;;;;;15.77;42.46;98874.09;5057288;28;1969;-48
2023/12/23 10:57:38;;;;;;;;;;;;;;;16.32;41.07;98880.16;5057609;28;1179;-44
2023/12/23 11:00:05;;;;;;;;;;;;;;;17.08;39.53;98916.66;5058351;28;1139;-49
2023/12/23 11:02:34;;;;;;;;;;;;;;;16.25;41.44;98918.91;5069252;28;1071;-49
2023/12/23 11:05:00;;;;;;;;;;;;;;;15.75;41.94;98919.31;5055641;28;1052;-49
2023/12/23 11:07:30;;;;;;;;;;;;;;;15.82;42.23;98926.66;5046001;28;1144;-48
2023/12/23 11:09:58;;;;;;;;;;;;;;;17.24;39.33;98937.19;5056835;28;1132;-47
2023/12/23 11:12:24;;;;;;;;;;;;;;;16.30;41.08;98935.19;5052702;28;2536;-46
2023/12/23 11:14:49;;;;;;;;;;;;;;;15.94;41.73;98928.09;5061172;28;1980;-51
2023/12/23 11:17:22;;;;;;;;;;;;;;;15.65;42.44;98945.06;5065916;28;875;-49
2023/12/23 11:19:48;;;;;;;;;;;;;;;17.22;39.44;98941.00;5072024;28;1127;-48
2023/12/23 11:22:21;;;;;;;;;;;;;;;16.64;40.14;98944.22;5070146;28;1118;-47
2023/12/23 11:24:46;;;;;;;;;;;;;;;16.06;41.28;98949.13;5079502;28;1122;-48
2023/12/23 11:27:32;;;;;;;;;;;;;;;15.70;42.57;98940.16;5079856;28;1177;-49
2023/12/23 11:30:01;;;;;;;;;;;;;;;16.39;41.26;98955.50;5069410;28;1262;-46
2023/12/23 11:32:31;;;;;;;;;;;;;;;17.22;39.27;98955.13;5064654;28;1031;-49
2023/12/23 11:34:57;;;;;;;;;;;;;;;16.24;41.09;98949.94;5068179;28;1909;-48
2023/12/23 11:37:23;;;;;;;;;;;;;;;15.77;42.03;98940.38;5072127;28;1035;-49
2023/12/23 11:39:49;;;;;;;;;;;;;;;15.58;42.46;98959.91;5065168;28;1230;-49
2023/12/23 11:42:14;;;;;;;;;;;;;;;16.68;40.69;98964.16;5046667;28;1853;-48
2023/12/23 11:44:40;;;;;;;;;;;;;;;17.01;39.54;98940.41;5073859;28;1121;-49
2023/12/23 11:47:07;;;;;;;;;;;;;;;16.18;41.32;98955.00;5079542;28;1070;-45
2023/12/23 11:49:32;;;;;;;;;;;;;;;15.83;41.89;98947.72;5061512;28;1116;-49
2023/12/23 11:51:58;;;;;;;;;;;;;;;16.19;41.71;98944.25;5070794;28;1078;-49
2023/12/23 11:54:24;;;;;;;;;;;;;;;17.29;39.09;98930.56;5059078;28;1988;-47
2023/12/23 11:56:49;;;;;;;;;;;;;;;16.35;40.87;98932.09;5066946;28;1114;-50
2023/12/23 11:59:15;;;;;;;;;;;;;;;15.89;41.71;98930.38;5064767;28;1035;-51
2023/12/23 12:01:40;;;;;;;;;;;;;;;15.64;42.50;98952.22;5068590;28;1301;-47
2023/12/23 12:04:06;;;;;;;;;;;;;;;16.68;40.52;98928.81;5078608;28;1123;-49
2023/12/23 12:06:31;;;;;;;;;;;;;;;17.14;39.20;98912.59;5055706;28;1040;-45
2023/12/23 12:08:57;;;;;;;;;;;;;;;16.26;41.30;98920.59;5079072;28;1353;-47
2023/12/23 12:11:26;;;;;;;;;;;;;;;15.80;42.12;98908.25;5056337;28;2451;-48
2023/12/23 12:13:54;;;;;;;;;;;;;;;15.54;42.51;98903.72;5078659;28;1905;-45
2023/12/23 12:16:20;;;;;;;;;;;;;;;16.48;40.80;98905.94;5076452;28;1067;-48
2023/12/23 12:18:47;;;;;;;;;;;;;;;17.18;39.05;98942.31;5060817;28;1028;-48
2023/12/23 12:21:13;;;;;;;;;;;;;;;16.20;40.82;98942.44;5075755;28;1114;-50
2023/12/23 12:23:38;;;;;;;;;;;;;;;15.78;41.72;98950.84;5068021;28;1043;-47
2023/12/23 12:26:04;;;;;;;;;;;;;;;15.95;41.86;98958.94;5076044;28;1102;-50
2023/12/23 12:28:30;;;;;;;;;;;;;;;17.33;38.93;98953.97;5066469;28;1139;-49
2023/12/23 12:31:06;;;;;;;;;;;;;;;16.58;40.21;98964.22;5055365;28;1191;-44
2023/12/23 12:33:33;;;;;;;;;;;;;;;16.20;41.36;98961.81;5074907;28;1106;-43
2023/12/23 12:36:00;;;;;;;;;;;;;;;15.71;42.19;98978.94;5068383;28;1992;-47
2023/12/23 12:38:25;;;;;;;;;;;;;;;16.61;40.63;98968.41;5077658;28;1011;-45
2023/12/23 12:40:51;;;;;;;;;;;;;;;17.04;39.59;98962.31;5074304;28;1880;-47
2023/12/23 12:43:16;;;;;;;;;;;;;;;16.14;41.33;98989.81;5074373;28;1015;-47
2023/12/23 12:45:42;;;;;;;;;;;;;;;15.82;42.18;98982.34;5068651;28;1051;-47
2023/12/23 12:48:11;;;;;;;;;;;;;;;15.59;42.47;98975.69;5073308;28;989;-46
2023/12/23 12:50:41;;;;;;;;;;;;;;;16.92;39.90;98973.22;5059945;28;1269;-49